GRL1LV BIKF-BGGH
Flight info
| Callsign | GRL1LV |
|---|---|
| Flight time | 1h 53m |
| Altitude | 40000 |
| Route | SORIR2C SORIR DCT SOPEN DCT SABAG DCT NAPIB DCT INBAN DCT GETDA |
| Aircraft | A332/H-SDE3GHIJ2J3J5M1RVWXY/LB2D1 |
Departure
| Time | 2026-04-25 07:08 |
|---|---|
| Airport | Keflavik International Airport (BIKF) |
Arrival
| Time | 2026-04-25 09:01 |
|---|---|
| Airport | Nuuk International Airport (BGGH) |
| Time | Latitude | Longitude | Altitude | Speed | Heading |
|---|---|---|---|---|---|
| 2026-04-25 06:39 | 63.99284 | -22.62448 | 154 ft | 0 kts | 2° |
| 2026-04-25 06:57 | 63.99268 | -22.62450 | 170 ft | 4 kts | 0° |
| 2026-04-25 06:58 | 63.99241 | -22.62449 | 167 ft | 4 kts | 359° |
| 2026-04-25 06:58 | 63.99214 | -22.62450 | 167 ft | 4 kts | 8° |
| 2026-04-25 06:58 | 63.99188 | -22.62462 | 167 ft | 4 kts | 12° |
| 2026-04-25 06:58 | 63.99162 | -22.62476 | 167 ft | 4 kts | 18° |
| 2026-04-25 06:59 | 63.99153 | -22.62483 | 167 ft | 0 kts | 19° |
| 2026-04-25 06:59 | 63.99169 | -22.62447 | 167 ft | 4 kts | 72° |
| 2026-04-25 07:00 | 63.99171 | -22.62371 | 167 ft | 7 kts | 88° |
| 2026-04-25 07:00 | 63.99172 | -22.62360 | 167 ft | 0 kts | 88° |
| 2026-04-25 07:02 | 63.99172 | -22.62346 | 167 ft | 1 kts | 88° |
| 2026-04-25 07:03 | 63.99172 | -22.62310 | 169 ft | 4 kts | 90° |
| 2026-04-25 07:03 | 63.99171 | -22.62203 | 167 ft | 9 kts | 90° |
| 2026-04-25 07:03 | 63.99171 | -22.62042 | 168 ft | 13 kts | 90° |
| 2026-04-25 07:03 | 63.99171 | -22.61811 | 168 ft | 17 kts | 90° |
| 2026-04-25 07:04 | 63.99170 | -22.61476 | 169 ft | 25 kts | 91° |
| 2026-04-25 07:04 | 63.99172 | -22.61032 | 171 ft | 29 kts | 88° |
| 2026-04-25 07:04 | 63.99173 | -22.60796 | 172 ft | 0 kts | 91° |
| 2026-04-25 07:04 | 63.99173 | -22.60781 | 172 ft | 1 kts | 91° |
| 2026-04-25 07:05 | 63.99173 | -22.60725 | 172 ft | 8 kts | 91° |
| 2026-04-25 07:05 | 63.99157 | -22.60570 | 173 ft | 7 kts | 138° |
| 2026-04-25 07:05 | 63.99077 | -22.60545 | 172 ft | 17 kts | 180° |
| 2026-04-25 07:05 | 63.99048 | -22.60544 | 170 ft | 0 kts | 180° |
| 2026-04-25 07:06 | 63.99039 | -22.60544 | 171 ft | 4 kts | 180° |
| 2026-04-25 07:06 | 63.99036 | -22.60544 | 171 ft | 0 kts | 180° |
| 2026-04-25 07:06 | 63.99035 | -22.60544 | 171 ft | 1 kts | 180° |
| 2026-04-25 07:07 | 63.98972 | -22.60544 | 168 ft | 30 kts | 180° |
| 2026-04-25 07:07 | 63.98546 | -22.60544 | 158 ft | 90 kts | 180° |
| 2026-04-25 07:07 | 63.97758 | -22.60534 | 154 ft | 135 kts | 179° |
| 2026-04-25 07:07 | 63.96790 | -22.60496 | 604 ft | 140 kts | 174° |
| 2026-04-25 07:08 | 63.95816 | -22.60497 | 1280 ft | 139 kts | 176° |
| 2026-04-25 07:08 | 63.94790 | -22.60508 | 1724 ft | 158 kts | 176° |
| 2026-04-25 07:08 | 63.93610 | -22.60511 | 1971 ft | 182 kts | 176° |
| 2026-04-25 07:08 | 63.92279 | -22.60550 | 2402 ft | 198 kts | 180° |
| 2026-04-25 07:09 | 63.90920 | -22.61315 | 3190 ft | 207 kts | 200° |
| 2026-04-25 07:09 | 63.89784 | -22.63461 | 3897 ft | 226 kts | 229° |
| 2026-04-25 07:09 | 63.89227 | -22.67032 | 4309 ft | 256 kts | 261° |
| 2026-04-25 07:09 | 63.89201 | -22.71143 | 5129 ft | 261 kts | 268° |
| 2026-04-25 07:10 | 63.89270 | -22.75126 | 6271 ft | 251 kts | 271° |
| 2026-04-25 07:10 | 63.89551 | -22.79059 | 7290 ft | 251 kts | 284° |
| 2026-04-25 07:10 | 63.90251 | -22.82783 | 7979 ft | 262 kts | 297° |
| 2026-04-25 07:10 | 63.91215 | -22.86332 | 8850 ft | 264 kts | 300° |
| 2026-04-25 07:11 | 63.92206 | -22.89784 | 9761 ft | 266 kts | 301° |
| 2026-04-25 07:11 | 63.93228 | -22.93364 | 10406 ft | 278 kts | 301° |
| 2026-04-25 07:11 | 63.94313 | -22.97211 | 10679 ft | 300 kts | 301° |
| 2026-04-25 07:11 | 63.95465 | -23.01333 | 11063 ft | 317 kts | 301° |
| 2026-04-25 07:12 | 63.96670 | -23.05662 | 11546 ft | 329 kts | 301° |
| 2026-04-25 07:12 | 63.99143 | -23.14588 | 12989 ft | 337 kts | 300° |
| 2026-04-25 07:12 | 64.00408 | -23.19169 | 13653 ft | 346 kts | 301° |
| 2026-04-25 07:13 | 64.01697 | -23.23854 | 14260 ft | 352 kts | 301° |
| 2026-04-25 07:13 | 64.03005 | -23.28617 | 14858 ft | 356 kts | 301° |
| 2026-04-25 07:13 | 64.04326 | -23.33438 | 15452 ft | 361 kts | 301° |
| 2026-04-25 07:13 | 64.05645 | -23.38263 | 16052 ft | 365 kts | 300° |
| 2026-04-25 07:14 | 64.06991 | -23.43203 | 16690 ft | 368 kts | 299° |
| 2026-04-25 07:14 | 64.08357 | -23.48227 | 17175 ft | 375 kts | 300° |
| 2026-04-25 07:14 | 64.09741 | -23.53325 | 17740 ft | 379 kts | 300° |
| 2026-04-25 07:14 | 64.11138 | -23.58479 | 18345 ft | 383 kts | 300° |
| 2026-04-25 07:15 | 64.12068 | -23.61918 | 18701 ft | 385 kts | 300° |
| 2026-04-25 07:15 | 64.13963 | -23.68944 | 19353 ft | 390 kts | 300° |
| 2026-04-25 07:15 | 64.15391 | -23.74255 | 19847 ft | 393 kts | 300° |
| 2026-04-25 07:15 | 64.16831 | -23.79619 | 20336 ft | 397 kts | 299° |
| 2026-04-25 07:16 | 64.17792 | -23.83209 | 20660 ft | 399 kts | 299° |
| 2026-04-25 07:16 | 64.19721 | -23.90430 | 21297 ft | 403 kts | 299° |
| 2026-04-25 07:16 | 64.21190 | -23.95944 | 21773 ft | 407 kts | 299° |
| 2026-04-25 07:16 | 64.22669 | -24.01511 | 22232 ft | 410 kts | 299° |
| 2026-04-25 07:17 | 64.24158 | -24.07130 | 22681 ft | 413 kts | 299° |
| 2026-04-25 07:17 | 64.25147 | -24.10870 | 22996 ft | 415 kts | 299° |
| 2026-04-25 07:17 | 64.26651 | -24.16569 | 23462 ft | 418 kts | 298° |
| 2026-04-25 07:17 | 64.28161 | -24.22304 | 23942 ft | 420 kts | 298° |
| 2026-04-25 07:18 | 64.29675 | -24.28072 | 24297 ft | 423 kts | 298° |
| 2026-04-25 07:18 | 64.31200 | -24.33896 | 24662 ft | 426 kts | 298° |
| 2026-04-25 07:18 | 64.32734 | -24.39769 | 25023 ft | 428 kts | 298° |
| 2026-04-25 07:18 | 64.34271 | -24.45672 | 25387 ft | 431 kts | 298° |
| 2026-04-25 07:19 | 64.35817 | -24.51619 | 25748 ft | 433 kts | 298° |
| 2026-04-25 07:19 | 64.37368 | -24.57608 | 26102 ft | 436 kts | 298° |
| 2026-04-25 07:19 | 64.38907 | -24.63570 | 26472 ft | 439 kts | 297° |
| 2026-04-25 07:19 | 64.40314 | -24.69821 | 26843 ft | 439 kts | 290° |
| 2026-04-25 07:20 | 64.41430 | -24.76406 | 27171 ft | 441 kts | 287° |
| 2026-04-25 07:20 | 64.42438 | -24.83136 | 27504 ft | 444 kts | 285° |
| 2026-04-25 07:20 | 64.43389 | -24.89944 | 27860 ft | 446 kts | 284° |
| 2026-04-25 07:20 | 64.44321 | -24.96814 | 28223 ft | 448 kts | 284° |
| 2026-04-25 07:21 | 64.45253 | -25.03729 | 28598 ft | 450 kts | 284° |
| 2026-04-25 07:21 | 64.46174 | -25.10531 | 28995 ft | 451 kts | 284° |
| 2026-04-25 07:21 | 64.47125 | -25.17517 | 29326 ft | 454 kts | 284° |
| 2026-04-25 07:21 | 64.48080 | -25.24515 | 29641 ft | 457 kts | 284° |
| 2026-04-25 07:22 | 64.49043 | -25.31560 | 29941 ft | 459 kts | 284° |
| 2026-04-25 07:22 | 64.50009 | -25.38639 | 30245 ft | 462 kts | 284° |
| 2026-04-25 07:22 | 64.50978 | -25.45759 | 30518 ft | 464 kts | 284° |
| 2026-04-25 07:22 | 64.51949 | -25.52926 | 30782 ft | 466 kts | 284° |
| 2026-04-25 07:23 | 64.52921 | -25.60126 | 31048 ft | 468 kts | 284° |
| 2026-04-25 07:23 | 64.53891 | -25.67356 | 31304 ft | 470 kts | 283° |
| 2026-04-25 07:23 | 64.54861 | -25.74617 | 31561 ft | 471 kts | 283° |
| 2026-04-25 07:23 | 64.55830 | -25.81899 | 31820 ft | 473 kts | 283° |
| 2026-04-25 07:24 | 64.56787 | -25.89129 | 32062 ft | 474 kts | 283° |
| 2026-04-25 07:24 | 64.57755 | -25.96477 | 32320 ft | 476 kts | 283° |
| 2026-04-25 07:24 | 64.58721 | -26.03837 | 32642 ft | 475 kts | 283° |
| 2026-04-25 07:24 | 64.59682 | -26.11183 | 33042 ft | 473 kts | 283° |
| 2026-04-25 07:25 | 64.60633 | -26.18486 | 33463 ft | 470 kts | 283° |
| 2026-04-25 07:25 | 64.61578 | -26.25779 | 33824 ft | 469 kts | 283° |
| 2026-04-25 07:25 | 64.62516 | -26.33057 | 34132 ft | 469 kts | 282° |
| 2026-04-25 07:25 | 64.63449 | -26.40340 | 34411 ft | 468 kts | 282° |
| 2026-04-25 07:26 | 64.64365 | -26.47511 | 34685 ft | 467 kts | 282° |
| 2026-04-25 07:26 | 64.65288 | -26.54773 | 34960 ft | 466 kts | 282° |
| 2026-04-25 07:26 | 64.66205 | -26.62018 | 35239 ft | 465 kts | 282° |
| 2026-04-25 07:26 | 64.67116 | -26.69254 | 35510 ft | 464 kts | 282° |
| 2026-04-25 07:27 | 64.68022 | -26.76481 | 35779 ft | 463 kts | 282° |
| 2026-04-25 07:27 | 64.68923 | -26.83698 | 36035 ft | 462 kts | 282° |
| 2026-04-25 07:27 | 64.69819 | -26.90927 | 36232 ft | 463 kts | 282° |
| 2026-04-25 07:27 | 64.70636 | -26.98197 | 36446 ft | 462 kts | 280° |
| 2026-04-25 07:28 | 64.71361 | -27.05399 | 36685 ft | 461 kts | 279° |
| 2026-04-25 07:28 | 64.72052 | -27.12705 | 36938 ft | 460 kts | 278° |
| 2026-04-25 07:28 | 64.72726 | -27.19998 | 37188 ft | 459 kts | 278° |
| 2026-04-25 07:28 | 64.73397 | -27.27278 | 37513 ft | 456 kts | 278° |
| 2026-04-25 07:29 | 64.74067 | -27.34510 | 37802 ft | 454 kts | 278° |
| 2026-04-25 07:29 | 64.74737 | -27.41713 | 38030 ft | 453 kts | 279° |
| 2026-04-25 07:29 | 64.75409 | -27.48923 | 38232 ft | 453 kts | 279° |
| 2026-04-25 07:29 | 64.76079 | -27.56131 | 38436 ft | 452 kts | 279° |
| 2026-04-25 07:30 | 64.76747 | -27.63336 | 38622 ft | 452 kts | 279° |
| 2026-04-25 07:30 | 64.77403 | -27.70433 | 38830 ft | 451 kts | 279° |
| 2026-04-25 07:30 | 64.78063 | -27.77619 | 38980 ft | 448 kts | 279° |
| 2026-04-25 07:30 | 64.78713 | -27.84729 | 38713 ft | 446 kts | 278° |
| 2026-04-25 07:31 | 64.79362 | -27.91899 | 38314 ft | 454 kts | 278° |
| 2026-04-25 07:31 | 64.80016 | -27.99183 | 38352 ft | 457 kts | 278° |
| 2026-04-25 07:31 | 64.80668 | -28.06470 | 38600 ft | 456 kts | 278° |
| 2026-04-25 07:31 | 64.81316 | -28.13734 | 38867 ft | 454 kts | 278° |
| 2026-04-25 07:32 | 64.81958 | -28.20978 | 39049 ft | 453 kts | 278° |
| 2026-04-25 07:32 | 64.82595 | -28.28210 | 39201 ft | 452 kts | 278° |
| 2026-04-25 07:32 | 64.83229 | -28.35449 | 39327 ft | 452 kts | 278° |
| 2026-04-25 07:32 | 64.83857 | -28.42672 | 39475 ft | 452 kts | 278° |
| 2026-04-25 07:33 | 64.84481 | -28.49897 | 39642 ft | 450 kts | 278° |
| 2026-04-25 07:33 | 64.85092 | -28.57008 | 39785 ft | 450 kts | 278° |
| 2026-04-25 07:33 | 64.86318 | -28.71429 | 39976 ft | 451 kts | 278° |
| 2026-04-25 07:34 | 64.86929 | -28.78672 | 40089 ft | 451 kts | 278° |
| 2026-04-25 07:34 | 64.87536 | -28.85916 | 40190 ft | 451 kts | 278° |
| 2026-04-25 07:34 | 64.88744 | -29.00480 | 40214 ft | 457 kts | 278° |
| 2026-04-25 07:35 | 64.89953 | -29.15243 | 40205 ft | 462 kts | 278° |
| 2026-04-25 07:35 | 64.91155 | -29.30103 | 40211 ft | 467 kts | 278° |
| 2026-04-25 07:36 | 64.92363 | -29.45240 | 40205 ft | 473 kts | 278° |
| 2026-04-25 07:36 | 64.93571 | -29.60577 | 40201 ft | 478 kts | 277° |
| 2026-04-25 07:37 | 64.94773 | -29.76053 | 40203 ft | 480 kts | 277° |
| 2026-04-25 07:37 | 64.95961 | -29.91565 | 40206 ft | 480 kts | 277° |
| 2026-04-25 07:38 | 64.97124 | -30.06976 | 40201 ft | 480 kts | 277° |
| 2026-04-25 07:38 | 64.98277 | -30.22486 | 40202 ft | 479 kts | 277° |
| 2026-04-25 07:39 | 64.99413 | -30.38010 | 40206 ft | 479 kts | 277° |
| 2026-04-25 07:39 | 65.00533 | -30.53545 | 40203 ft | 479 kts | 277° |
| 2026-04-25 07:40 | 65.01629 | -30.68981 | 40209 ft | 479 kts | 277° |
| 2026-04-25 07:40 | 65.02716 | -30.84530 | 40221 ft | 479 kts | 276° |
| 2026-04-25 07:41 | 65.03786 | -31.00075 | 40211 ft | 478 kts | 276° |
| 2026-04-25 07:41 | 65.04838 | -31.15600 | 40213 ft | 477 kts | 276° |
| 2026-04-25 07:42 | 65.05865 | -31.31016 | 40208 ft | 477 kts | 276° |
| 2026-04-25 07:42 | 65.06884 | -31.46561 | 40211 ft | 477 kts | 276° |
| 2026-04-25 07:43 | 65.07886 | -31.62092 | 40214 ft | 477 kts | 276° |
| 2026-04-25 07:43 | 65.08872 | -31.77647 | 40213 ft | 477 kts | 276° |
| 2026-04-25 07:44 | 65.09841 | -31.93206 | 40220 ft | 477 kts | 276° |
| 2026-04-25 07:44 | 65.10794 | -32.08769 | 40219 ft | 476 kts | 276° |
| 2026-04-25 07:45 | 65.11722 | -32.24197 | 40220 ft | 475 kts | 276° |
| 2026-04-25 07:45 | 65.12640 | -32.39730 | 40221 ft | 475 kts | 275° |
| 2026-04-25 07:46 | 65.13542 | -32.55284 | 40222 ft | 475 kts | 275° |
| 2026-04-25 07:46 | 65.14427 | -32.70835 | 40223 ft | 475 kts | 275° |
| 2026-04-25 07:47 | 65.15295 | -32.86377 | 40231 ft | 475 kts | 275° |
| 2026-04-25 07:47 | 65.16143 | -33.01842 | 40231 ft | 475 kts | 275° |
| 2026-04-25 07:48 | 65.16979 | -33.17412 | 40230 ft | 475 kts | 275° |
| 2026-04-25 07:48 | 65.17799 | -33.32992 | 40248 ft | 474 kts | 275° |
| 2026-04-25 07:49 | 65.18603 | -33.48558 | 40237 ft | 473 kts | 275° |
| 2026-04-25 07:49 | 65.19388 | -33.64110 | 40242 ft | 473 kts | 274° |
| 2026-04-25 07:50 | 65.20158 | -33.79669 | 40244 ft | 473 kts | 274° |
| 2026-04-25 07:50 | 65.20906 | -33.95132 | 40243 ft | 473 kts | 274° |
| 2026-04-25 07:51 | 65.21644 | -34.10715 | 40246 ft | 473 kts | 274° |
| 2026-04-25 07:51 | 65.22365 | -34.26286 | 40251 ft | 473 kts | 274° |
| 2026-04-25 07:52 | 65.23070 | -34.41899 | 40246 ft | 474 kts | 274° |
| 2026-04-25 07:52 | 65.23761 | -34.57525 | 40263 ft | 473 kts | 274° |
| 2026-04-25 07:53 | 65.24428 | -34.73011 | 40253 ft | 472 kts | 274° |
| 2026-04-25 07:53 | 65.25084 | -34.88590 | 40253 ft | 472 kts | 274° |
| 2026-04-25 07:54 | 65.25723 | -35.04199 | 40256 ft | 472 kts | 274° |
| 2026-04-25 07:54 | 65.26347 | -35.19805 | 40256 ft | 472 kts | 273° |
| 2026-04-25 07:55 | 65.26848 | -35.35421 | 40262 ft | 471 kts | 270° |
| 2026-04-25 07:55 | 65.27039 | -35.51084 | 40270 ft | 472 kts | 269° |
| 2026-04-25 07:56 | 65.27159 | -35.66750 | 40262 ft | 472 kts | 269° |
| 2026-04-25 07:56 | 65.27289 | -35.82418 | 40262 ft | 472 kts | 269° |
| 2026-04-25 07:57 | 65.27424 | -35.97962 | 40268 ft | 470 kts | 269° |
| 2026-04-25 07:57 | 65.27549 | -36.13578 | 40268 ft | 470 kts | 269° |
| 2026-04-25 07:58 | 65.27658 | -36.29196 | 40265 ft | 470 kts | 269° |
| 2026-04-25 07:58 | 65.27749 | -36.44819 | 40271 ft | 470 kts | 269° |
| 2026-04-25 07:59 | 65.27824 | -36.60340 | 40271 ft | 470 kts | 269° |
| 2026-04-25 07:59 | 65.27883 | -36.75956 | 40273 ft | 470 kts | 269° |
| 2026-04-25 08:00 | 65.27926 | -36.91572 | 40276 ft | 470 kts | 269° |
| 2026-04-25 08:00 | 65.27952 | -37.07176 | 40279 ft | 470 kts | 268° |
| 2026-04-25 08:01 | 65.27963 | -37.22790 | 40292 ft | 470 kts | 268° |
| 2026-04-25 08:01 | 65.27957 | -37.38375 | 40276 ft | 469 kts | 268° |
| 2026-04-25 08:02 | 65.27935 | -37.53966 | 40278 ft | 470 kts | 268° |
| 2026-04-25 08:02 | 65.27897 | -37.69474 | 40279 ft | 470 kts | 268° |
| 2026-04-25 08:03 | 65.27843 | -37.85089 | 40279 ft | 470 kts | 268° |
| 2026-04-25 08:03 | 65.27773 | -38.00708 | 40279 ft | 470 kts | 268° |
| 2026-04-25 08:04 | 65.27687 | -38.16317 | 40279 ft | 470 kts | 268° |
| 2026-04-25 08:04 | 65.27584 | -38.31932 | 40279 ft | 470 kts | 268° |
| 2026-04-25 08:05 | 65.27466 | -38.47437 | 40279 ft | 470 kts | 267° |
| 2026-04-25 08:05 | 65.27331 | -38.63080 | 40287 ft | 472 kts | 267° |
| 2026-04-25 08:06 | 65.27180 | -38.78731 | 40276 ft | 471 kts | 267° |
| 2026-04-25 08:06 | 65.27012 | -38.94366 | 40276 ft | 471 kts | 267° |
| 2026-04-25 08:07 | 65.26829 | -39.10017 | 40274 ft | 471 kts | 267° |
| 2026-04-25 08:07 | 65.26629 | -39.25644 | 40273 ft | 471 kts | 266° |
| 2026-04-25 08:08 | 65.26413 | -39.41264 | 40276 ft | 471 kts | 266° |
| 2026-04-25 08:08 | 65.26182 | -39.56801 | 40272 ft | 471 kts | 266° |
| 2026-04-25 08:09 | 65.25932 | -39.72460 | 40271 ft | 472 kts | 266° |
| 2026-04-25 08:09 | 65.25667 | -39.88120 | 40270 ft | 472 kts | 266° |
| 2026-04-25 08:10 | 65.25386 | -40.03766 | 40270 ft | 471 kts | 266° |
| 2026-04-25 08:10 | 65.25089 | -40.19378 | 40267 ft | 471 kts | 266° |
| 2026-04-25 08:11 | 65.24778 | -40.34872 | 40260 ft | 471 kts | 266° |
| 2026-04-25 08:11 | 65.24449 | -40.50468 | 40260 ft | 471 kts | 265° |
| 2026-04-25 08:12 | 65.24103 | -40.66080 | 40259 ft | 472 kts | 265° |
| 2026-04-25 08:12 | 65.23740 | -40.81706 | 40257 ft | 472 kts | 265° |
| 2026-04-25 08:13 | 65.23362 | -40.97334 | 40255 ft | 472 kts | 265° |
| 2026-04-25 08:14 | 65.22767 | -41.20655 | 40246 ft | 472 kts | 265° |
| 2026-04-25 08:14 | 65.22348 | -41.36258 | 40243 ft | 471 kts | 265° |
| 2026-04-25 08:15 | 65.21915 | -41.51792 | 40238 ft | 470 kts | 265° |
| 2026-04-25 08:15 | 65.21466 | -41.67308 | 40203 ft | 469 kts | 265° |
| 2026-04-25 08:16 | 65.21006 | -41.82662 | 40205 ft | 466 kts | 264° |
| 2026-04-25 08:16 | 65.20527 | -41.98093 | 40181 ft | 468 kts | 264° |
| 2026-04-25 08:17 | 65.20034 | -42.13502 | 40150 ft | 466 kts | 264° |
| 2026-04-25 08:17 | 65.19525 | -42.28908 | 40152 ft | 467 kts | 264° |
| 2026-04-25 08:18 | 65.19001 | -42.44304 | 40154 ft | 466 kts | 264° |
| 2026-04-25 08:18 | 65.18463 | -42.59601 | 40152 ft | 466 kts | 264° |
| 2026-04-25 08:19 | 65.17906 | -42.75003 | 40150 ft | 469 kts | 264° |
| 2026-04-25 08:19 | 65.17331 | -42.90447 | 40159 ft | 468 kts | 264° |
| 2026-04-25 08:20 | 65.16741 | -43.05885 | 40175 ft | 469 kts | 264° |
| 2026-04-25 08:20 | 65.16139 | -43.21214 | 40175 ft | 468 kts | 263° |
| 2026-04-25 08:21 | 65.15516 | -43.36647 | 40183 ft | 468 kts | 263° |
| 2026-04-25 08:21 | 65.14880 | -43.52047 | 40183 ft | 469 kts | 263° |
| 2026-04-25 08:22 | 65.14226 | -43.67464 | 40184 ft | 468 kts | 263° |
| 2026-04-25 08:22 | 65.13655 | -43.82918 | 40192 ft | 471 kts | 265° |
| 2026-04-25 08:23 | 65.13224 | -43.98348 | 40198 ft | 471 kts | 265° |
| 2026-04-25 08:23 | 65.12792 | -44.13868 | 40205 ft | 470 kts | 265° |
| 2026-04-25 08:24 | 65.12329 | -44.29352 | 40206 ft | 470 kts | 265° |
| 2026-04-25 08:24 | 65.11838 | -44.44830 | 40205 ft | 470 kts | 265° |
| 2026-04-25 08:25 | 65.11332 | -44.60193 | 40224 ft | 470 kts | 264° |
| 2026-04-25 08:25 | 65.10806 | -44.75658 | 40218 ft | 470 kts | 264° |
| 2026-04-25 08:26 | 65.10265 | -44.91132 | 40229 ft | 471 kts | 264° |
| 2026-04-25 08:26 | 65.09708 | -45.06612 | 40240 ft | 471 kts | 264° |
| 2026-04-25 08:27 | 65.09135 | -45.22088 | 40241 ft | 471 kts | 264° |
| 2026-04-25 08:27 | 65.08550 | -45.37425 | 40243 ft | 468 kts | 264° |
| 2026-04-25 08:28 | 65.07949 | -45.52794 | 40241 ft | 468 kts | 264° |
| 2026-04-25 08:28 | 65.07332 | -45.68155 | 40244 ft | 468 kts | 264° |
| 2026-04-25 08:29 | 65.06699 | -45.83501 | 40240 ft | 468 kts | 264° |
| 2026-04-25 08:29 | 65.06050 | -45.98855 | 40244 ft | 469 kts | 264° |
| 2026-04-25 08:30 | 65.05389 | -46.14113 | 40246 ft | 469 kts | 264° |
| 2026-04-25 08:30 | 65.04709 | -46.29466 | 40246 ft | 468 kts | 263° |
| 2026-04-25 08:31 | 65.04012 | -46.44804 | 40245 ft | 469 kts | 263° |
| 2026-04-25 08:31 | 65.03301 | -46.60127 | 40248 ft | 468 kts | 263° |
| 2026-04-25 08:32 | 65.02582 | -46.75277 | 40235 ft | 466 kts | 263° |
| 2026-04-25 08:32 | 65.01843 | -46.90494 | 40243 ft | 465 kts | 263° |
| 2026-04-25 08:32 | 65.01468 | -46.98088 | 40348 ft | 464 kts | 263° |
| 2026-04-25 08:33 | 65.01091 | -47.05665 | 40483 ft | 464 kts | 263° |
| 2026-04-25 08:33 | 65.00324 | -47.20812 | 40660 ft | 464 kts | 263° |
| 2026-04-25 08:34 | 64.99543 | -47.35939 | 40677 ft | 460 kts | 262° |
| 2026-04-25 08:34 | 64.99153 | -47.43382 | 40082 ft | 453 kts | 262° |
| 2026-04-25 08:34 | 64.98769 | -47.50648 | 39220 ft | 451 kts | 262° |
| 2026-04-25 08:34 | 64.98377 | -47.57978 | 38272 ft | 448 kts | 262° |
| 2026-04-25 08:35 | 64.97984 | -47.65252 | 37261 ft | 444 kts | 263° |
| 2026-04-25 08:35 | 64.97595 | -47.72380 | 36736 ft | 431 kts | 263° |
| 2026-04-25 08:35 | 64.97211 | -47.79346 | 36479 ft | 428 kts | 263° |
| 2026-04-25 08:35 | 64.96820 | -47.86381 | 36238 ft | 435 kts | 263° |
| 2026-04-25 08:36 | 64.96425 | -47.93455 | 35963 ft | 433 kts | 263° |
| 2026-04-25 08:36 | 64.96029 | -48.00477 | 35712 ft | 430 kts | 264° |
| 2026-04-25 08:36 | 64.95631 | -48.07474 | 35466 ft | 430 kts | 264° |
| 2026-04-25 08:36 | 64.95235 | -48.14368 | 35220 ft | 430 kts | 264° |
| 2026-04-25 08:37 | 64.94830 | -48.21380 | 34901 ft | 435 kts | 264° |
| 2026-04-25 08:37 | 64.94416 | -48.28505 | 34409 ft | 439 kts | 264° |
| 2026-04-25 08:37 | 64.94000 | -48.35574 | 34150 ft | 432 kts | 264° |
| 2026-04-25 08:37 | 64.93584 | -48.42562 | 33881 ft | 429 kts | 264° |
| 2026-04-25 08:38 | 64.93166 | -48.49551 | 33514 ft | 435 kts | 264° |
| 2026-04-25 08:38 | 64.92739 | -48.56671 | 32752 ft | 442 kts | 264° |
| 2026-04-25 08:38 | 64.92303 | -48.63898 | 31756 ft | 449 kts | 264° |
| 2026-04-25 08:38 | 64.91857 | -48.71195 | 30973 ft | 452 kts | 263° |
| 2026-04-25 08:39 | 64.91403 | -48.78523 | 30338 ft | 450 kts | 263° |
| 2026-04-25 08:39 | 64.90955 | -48.85684 | 29734 ft | 446 kts | 263° |
| 2026-04-25 08:39 | 64.90502 | -48.92877 | 29134 ft | 442 kts | 263° |
| 2026-04-25 08:39 | 64.90050 | -49.00001 | 28498 ft | 438 kts | 263° |
| 2026-04-25 08:40 | 64.89597 | -49.07096 | 27795 ft | 437 kts | 263° |
| 2026-04-25 08:40 | 64.89144 | -49.14126 | 27320 ft | 432 kts | 262° |
| 2026-04-25 08:40 | 64.88696 | -49.21038 | 27063 ft | 421 kts | 262° |
| 2026-04-25 08:40 | 64.88254 | -49.27804 | 26531 ft | 418 kts | 262° |
| 2026-04-25 08:41 | 64.87810 | -49.34555 | 25885 ft | 417 kts | 262° |
| 2026-04-25 08:41 | 64.87366 | -49.41272 | 25317 ft | 414 kts | 261° |
| 2026-04-25 08:41 | 64.86921 | -49.47942 | 24763 ft | 411 kts | 261° |
| 2026-04-25 08:41 | 64.86482 | -49.54475 | 24233 ft | 409 kts | 261° |
| 2026-04-25 08:42 | 64.86037 | -49.61054 | 23675 ft | 406 kts | 261° |
| 2026-04-25 08:42 | 64.85595 | -49.67555 | 23169 ft | 400 kts | 261° |
| 2026-04-25 08:42 | 64.85155 | -49.73961 | 22292 ft | 393 kts | 261° |
| 2026-04-25 08:42 | 64.84720 | -49.80264 | 21357 ft | 389 kts | 261° |
| 2026-04-25 08:43 | 64.84287 | -49.86499 | 20807 ft | 385 kts | 261° |
| 2026-04-25 08:43 | 64.83846 | -49.92669 | 20272 ft | 381 kts | 259° |
| 2026-04-25 08:43 | 64.82976 | -49.98502 | 19748 ft | 379 kts | 243° |
| 2026-04-25 08:43 | 64.81432 | -50.03516 | 19178 ft | 380 kts | 231° |
| 2026-04-25 08:44 | 64.79592 | -50.07968 | 18660 ft | 379 kts | 226° |
| 2026-04-25 08:44 | 64.77621 | -50.12056 | 18095 ft | 377 kts | 223° |
| 2026-04-25 08:44 | 64.75602 | -50.15942 | 17498 ft | 374 kts | 222° |
| 2026-04-25 08:44 | 64.73606 | -50.19693 | 16944 ft | 371 kts | 222° |
| 2026-04-25 08:45 | 64.71602 | -50.23463 | 16389 ft | 368 kts | 222° |
| 2026-04-25 08:45 | 64.69624 | -50.27231 | 15819 ft | 365 kts | 222° |
| 2026-04-25 08:45 | 64.67675 | -50.30991 | 15251 ft | 362 kts | 223° |
| 2026-04-25 08:45 | 64.65746 | -50.34743 | 14699 ft | 359 kts | 223° |
| 2026-04-25 08:46 | 64.63841 | -50.38464 | 14169 ft | 356 kts | 223° |
| 2026-04-25 08:46 | 64.61947 | -50.42171 | 13567 ft | 354 kts | 223° |
| 2026-04-25 08:46 | 64.60072 | -50.45838 | 12949 ft | 351 kts | 223° |
| 2026-04-25 08:46 | 64.58203 | -50.49484 | 12395 ft | 348 kts | 222° |
| 2026-04-25 08:47 | 64.56366 | -50.53055 | 11964 ft | 341 kts | 222° |
| 2026-04-25 08:47 | 64.54584 | -50.56512 | 11571 ft | 335 kts | 222° |
| 2026-04-25 08:47 | 64.52809 | -50.59949 | 11177 ft | 329 kts | 222° |
| 2026-04-25 08:47 | 64.51068 | -50.63308 | 10818 ft | 322 kts | 222° |
| 2026-04-25 08:48 | 64.49385 | -50.66548 | 10721 ft | 307 kts | 222° |
| 2026-04-25 08:48 | 64.47779 | -50.69636 | 10620 ft | 294 kts | 222° |
| 2026-04-25 08:48 | 64.46233 | -50.72606 | 10479 ft | 284 kts | 222° |
| 2026-04-25 08:48 | 64.44740 | -50.75472 | 10347 ft | 274 kts | 222° |
| 2026-04-25 08:49 | 64.43295 | -50.78245 | 10200 ft | 267 kts | 222° |
| 2026-04-25 08:49 | 64.41968 | -50.80794 | 9851 ft | 269 kts | 222° |
| 2026-04-25 08:49 | 64.40545 | -50.83526 | 9575 ft | 271 kts | 222° |
| 2026-04-25 08:49 | 64.39085 | -50.86329 | 9300 ft | 274 kts | 222° |
| 2026-04-25 08:50 | 64.37615 | -50.89138 | 9035 ft | 274 kts | 221° |
| 2026-04-25 08:50 | 64.36151 | -50.91927 | 8866 ft | 273 kts | 221° |
| 2026-04-25 08:50 | 64.34684 | -50.94714 | 8740 ft | 273 kts | 221° |
| 2026-04-25 08:50 | 64.33218 | -50.97497 | 8604 ft | 273 kts | 221° |
| 2026-04-25 08:51 | 64.31755 | -51.00272 | 8473 ft | 273 kts | 221° |
| 2026-04-25 08:51 | 64.30290 | -51.03048 | 8341 ft | 273 kts | 221° |
| 2026-04-25 08:51 | 64.28824 | -51.05820 | 8282 ft | 272 kts | 221° |
| 2026-04-25 08:51 | 64.27359 | -51.08586 | 8283 ft | 272 kts | 221° |
| 2026-04-25 08:52 | 64.25912 | -51.11314 | 8285 ft | 272 kts | 221° |
| 2026-04-25 08:52 | 64.24446 | -51.14073 | 8284 ft | 272 kts | 221° |
| 2026-04-25 08:52 | 64.22979 | -51.16831 | 8285 ft | 272 kts | 221° |
| 2026-04-25 08:52 | 64.21512 | -51.19587 | 8284 ft | 272 kts | 221° |
| 2026-04-25 08:53 | 64.20089 | -51.22455 | 8282 ft | 272 kts | 225° |
| 2026-04-25 08:53 | 64.18725 | -51.25450 | 8282 ft | 272 kts | 226° |
| 2026-04-25 08:53 | 64.17381 | -51.28494 | 8281 ft | 272 kts | 227° |
| 2026-04-25 08:53 | 64.16048 | -51.31564 | 8278 ft | 271 kts | 227° |
| 2026-04-25 08:54 | 64.14719 | -51.34645 | 8286 ft | 272 kts | 227° |
| 2026-04-25 08:54 | 64.13411 | -51.37681 | 8290 ft | 272 kts | 227° |
| 2026-04-25 08:54 | 64.12081 | -51.40757 | 8285 ft | 272 kts | 227° |
| 2026-04-25 08:54 | 64.10750 | -51.43830 | 8008 ft | 272 kts | 227° |
| 2026-04-25 08:55 | 64.09421 | -51.46888 | 7712 ft | 268 kts | 227° |
| 2026-04-25 08:55 | 64.08128 | -51.49847 | 7549 ft | 257 kts | 228° |
| 2026-04-25 08:55 | 64.06897 | -51.52651 | 7373 ft | 241 kts | 228° |
| 2026-04-25 08:55 | 64.05753 | -51.55248 | 7256 ft | 222 kts | 228° |
| 2026-04-25 08:56 | 64.04700 | -51.57636 | 7106 ft | 205 kts | 227° |
| 2026-04-25 08:56 | 64.03730 | -51.59836 | 6990 ft | 190 kts | 228° |
| 2026-04-25 08:56 | 64.02879 | -51.61980 | 6801 ft | 176 kts | 240° |
| 2026-04-25 08:56 | 64.02403 | -51.64417 | 6467 ft | 169 kts | 261° |
| 2026-04-25 08:57 | 64.02475 | -51.67036 | 6059 ft | 165 kts | 292° |
| 2026-04-25 08:57 | 64.03154 | -51.69080 | 5660 ft | 164 kts | 324° |
| 2026-04-25 08:57 | 64.04175 | -51.70176 | 5346 ft | 161 kts | 340° |
| 2026-04-25 08:57 | 64.05230 | -51.70925 | 4997 ft | 160 kts | 342° |
| 2026-04-25 08:58 | 64.06317 | -51.71669 | 4497 ft | 166 kts | 342° |
| 2026-04-25 08:58 | 64.07434 | -51.72462 | 4011 ft | 170 kts | 342° |
| 2026-04-25 08:58 | 64.08568 | -51.73289 | 3517 ft | 172 kts | 342° |
| 2026-04-25 08:58 | 64.09764 | -51.73305 | 3016 ft | 178 kts | 8° |
| 2026-04-25 08:59 | 64.10977 | -51.72823 | 2550 ft | 182 kts | 6° |
| 2026-04-25 08:59 | 64.12289 | -51.72433 | 1657 ft | 197 kts | 6° |
| 2026-04-25 08:59 | 64.13676 | -51.72064 | 587 ft | 210 kts | 5° |
| 2026-04-25 08:59 | 64.14967 | -51.71378 | 688 ft | 171 kts | 21° |
| 2026-04-25 09:00 | 64.15966 | -51.70361 | 739 ft | 149 kts | 20° |
| 2026-04-25 09:00 | 64.16896 | -51.69499 | 735 ft | 142 kts | 21° |
| 2026-04-25 09:00 | 64.17814 | -51.68866 | 478 ft | 135 kts | 13° |
| 2026-04-25 09:00 | 64.18669 | -51.68239 | 305 ft | 120 kts | 17° |
| 2026-04-25 09:01 | 64.19289 | -51.67775 | 293 ft | 45 kts | 18° |
| 2026-04-25 09:01 | 64.19349 | -51.67730 | 295 ft | 0 kts | 18° |